sensor_id;sensor_type;location;lat;lon;timestamp;P1;durP1;ratioP1;P2;durP2;ratioP2
53207;SDS011;39093;52.788;6.940;2023-07-20T00:01:39;2.15;;;0.85;;
53207;SDS011;39093;52.788;6.940;2023-07-20T00:04:07;1.58;;;0.88;;
53207;SDS011;39093;52.788;6.940;2023-07-20T00:06:34;1.48;;;0.60;;
53207;SDS011;39093;52.788;6.940;2023-07-20T00:09:01;0.85;;;0.63;;
53207;SDS011;39093;52.788;6.940;2023-07-20T00:11:28;2.08;;;0.80;;
53207;SDS011;39093;52.788;6.940;2023-07-20T00:13:55;2.55;;;0.60;;
53207;SDS011;39093;52.788;6.940;2023-07-20T00:16:22;0.80;;;0.60;;
53207;SDS011;39093;52.788;6.940;2023-07-20T00:18:50;0.93;;;0.52;;
53207;SDS011;39093;52.788;6.940;2023-07-20T00:21:17;0.73;;;0.63;;
53207;SDS011;39093;52.788;6.940;2023-07-20T00:23:44;1.98;;;1.10;;
53207;SDS011;39093;52.788;6.940;2023-07-20T00:26:11;3.05;;;0.90;;
53207;SDS011;39093;52.788;6.940;2023-07-20T00:28:37;1.38;;;0.77;;
53207;SDS011;39093;52.788;6.940;2023-07-20T00:31:05;1.02;;;0.80;;
53207;SDS011;39093;52.788;6.940;2023-07-20T00:33:32;3.00;;;0.88;;
53207;SDS011;39093;52.788;6.940;2023-07-20T00:35:59;1.48;;;0.73;;
53207;SDS011;39093;52.788;6.940;2023-07-20T00:38:25;0.70;;;0.70;;
53207;SDS011;39093;52.788;6.940;2023-07-20T00:40:52;2.10;;;1.00;;
53207;SDS011;39093;52.788;6.940;2023-07-20T00:43:22;2.83;;;0.90;;
53207;SDS011;39093;52.788;6.940;2023-07-20T00:45:49;2.33;;;0.65;;
53207;SDS011;39093;52.788;6.940;2023-07-20T00:48:16;1.05;;;0.70;;
53207;SDS011;39093;52.788;6.940;2023-07-20T00:50:43;2.83;;;1.20;;
53207;SDS011;39093;52.788;6.940;2023-07-20T00:53:11;1.95;;;0.75;;
53207;SDS011;39093;52.788;6.940;2023-07-20T00:55:38;2.72;;;1.05;;
53207;SDS011;39093;52.788;6.940;2023-07-20T00:58:05;1.65;;;0.80;;
53207;SDS011;39093;52.788;6.940;2023-07-20T01:00:32;0.90;;;0.82;;
53207;SDS011;39093;52.788;6.940;2023-07-20T01:02:59;1.00;;;0.80;;
53207;SDS011;39093;52.788;6.940;2023-07-20T01:05:31;2.25;;;1.15;;
53207;SDS011;39093;52.788;6.940;2023-07-20T01:08:24;2.70;;;1.15;;
53207;SDS011;39093;52.788;6.940;2023-07-20T01:11:03;5.38;;;1.13;;
53207;SDS011;39093;52.788;6.940;2023-07-20T01:13:42;2.75;;;1.33;;
53207;SDS011;39093;52.788;6.940;2023-07-20T01:16:10;2.00;;;0.90;;
53207;SDS011;39093;52.788;6.940;2023-07-20T01:18:37;2.70;;;0.98;;
53207;SDS011;39093;52.788;6.940;2023-07-20T01:21:06;1.30;;;1.17;;
53207;SDS011;39093;52.788;6.940;2023-07-20T01:31:49;1.85;;;1.02;;
53207;SDS011;39093;52.788;6.940;2023-07-20T01:34:20;1.20;;;1.10;;
53207;SDS011;39093;52.788;6.940;2023-07-20T01:36:50;0.75;;;0.73;;
53207;SDS011;39093;52.788;6.940;2023-07-20T01:39:19;2.10;;;0.88;;
53207;SDS011;39093;52.788;6.940;2023-07-20T01:41:47;4.53;;;1.00;;
53207;SDS011;39093;52.788;6.940;2023-07-20T01:44:16;2.97;;;0.88;;
53207;SDS011;39093;52.788;6.940;2023-07-20T01:46:43;0.85;;;0.85;;
53207;SDS011;39093;52.788;6.940;2023-07-20T01:49:10;1.25;;;1.00;;
53207;SDS011;39093;52.788;6.940;2023-07-20T01:51:37;1.80;;;1.00;;
53207;SDS011;39093;52.788;6.940;2023-07-20T01:54:04;2.42;;;0.90;;
53207;SDS011;39093;52.788;6.940;2023-07-20T01:56:30;1.85;;;1.00;;
53207;SDS011;39093;52.788;6.940;2023-07-20T01:58:57;0.98;;;0.70;;
53207;SDS011;39093;52.788;6.940;2023-07-20T02:01:24;2.50;;;1.05;;
53207;SDS011;39093;52.788;6.940;2023-07-20T02:03:51;2.00;;;0.82;;
53207;SDS011;39093;52.788;6.940;2023-07-20T02:06:19;2.40;;;0.90;;
53207;SDS011;39093;52.788;6.940;2023-07-20T02:08:47;1.50;;;1.10;;
53207;SDS011;39093;52.788;6.940;2023-07-20T02:11:13;2.65;;;1.00;;
53207;SDS011;39093;52.788;6.940;2023-07-20T02:13:40;1.35;;;1.10;;
53207;SDS011;39093;52.788;6.940;2023-07-20T02:16:09;2.08;;;0.93;;
53207;SDS011;39093;52.788;6.940;2023-07-20T02:18:37;3.03;;;1.23;;
53207;SDS011;39093;52.788;6.940;2023-07-20T02:21:04;2.70;;;1.17;;
53207;SDS011;39093;52.788;6.940;2023-07-20T02:23:31;5.43;;;1.10;;
53207;SDS011;39093;52.788;6.940;2023-07-20T02:25:59;1.55;;;1.05;;
53207;SDS011;39093;52.788;6.940;2023-07-20T02:28:26;1.20;;;1.10;;
53207;SDS011;39093;52.788;6.940;2023-07-20T02:30:52;2.63;;;1.33;;
53207;SDS011;39093;52.788;6.940;2023-07-20T02:33:20;2.35;;;1.10;;
53207;SDS011;39093;52.788;6.940;2023-07-20T02:35:47;2.90;;;1.10;;
53207;SDS011;39093;52.788;6.940;2023-07-20T02:38:15;1.33;;;1.15;;
53207;SDS011;39093;52.788;6.940;2023-07-20T02:40:44;1.52;;;1.20;;
53207;SDS011;39093;52.788;6.940;2023-07-20T02:43:13;5.97;;;1.45;;
53207;SDS011;39093;52.788;6.940;2023-07-20T02:45:40;3.33;;;1.20;;
53207;SDS011;39093;52.788;6.940;2023-07-20T02:48:10;1.92;;;1.70;;
53207;SDS011;39093;52.788;6.940;2023-07-20T02:50:37;1.88;;;1.60;;
53207;SDS011;39093;52.788;6.940;2023-07-20T02:53:04;2.05;;;1.52;;
53207;SDS011;39093;52.788;6.940;2023-07-20T02:55:31;2.50;;;1.90;;
53207;SDS011;39093;52.788;6.940;2023-07-20T02:57:58;2.65;;;2.10;;
53207;SDS011;39093;52.788;6.940;2023-07-20T03:00:25;6.18;;;3.13;;
53207;SDS011;39093;52.788;6.940;2023-07-20T03:02:52;4.22;;;2.13;;
53207;SDS011;39093;52.788;6.940;2023-07-20T03:05:22;3.55;;;2.85;;
53207;SDS011;39093;52.788;6.940;2023-07-20T03:08:00;3.47;;;3.05;;
53207;SDS011;39093;52.788;6.940;2023-07-20T03:10:28;3.38;;;3.08;;
53207;SDS011;39093;52.788;6.940;2023-07-20T03:12:55;3.85;;;3.38;;
53207;SDS011;39093;52.788;6.940;2023-07-20T03:15:22;4.75;;;3.55;;
53207;SDS011;39093;52.788;6.940;2023-07-20T03:17:49;3.53;;;3.22;;
53207;SDS011;39093;52.788;6.940;2023-07-20T03:20:17;3.83;;;3.13;;
53207;SDS011;39093;52.788;6.940;2023-07-20T03:22:44;4.70;;;3.40;;
53207;SDS011;39093;52.788;6.940;2023-07-20T03:25:13;3.92;;;3.53;;
53207;SDS011;39093;52.788;6.940;2023-07-20T03:27:40;5.57;;;3.15;;
53207;SDS011;39093;52.788;6.940;2023-07-20T03:30:08;3.97;;;3.58;;
53207;SDS011;39093;52.788;6.940;2023-07-20T03:32:36;4.55;;;4.15;;
53207;SDS011;39093;52.788;6.940;2023-07-20T03:35:03;4.28;;;3.53;;
53207;SDS011;39093;52.788;6.940;2023-07-20T03:37:31;5.82;;;3.58;;
53207;SDS011;39093;52.788;6.940;2023-07-20T03:39:57;4.03;;;3.63;;
53207;SDS011;39093;52.788;6.940;2023-07-20T03:42:24;4.55;;;3.95;;
53207;SDS011;39093;52.788;6.940;2023-07-20T03:44:51;4.78;;;3.35;;
53207;SDS011;39093;52.788;6.940;2023-07-20T03:47:18;3.78;;;3.47;;
53207;SDS011;39093;52.788;6.940;2023-07-20T03:49:45;4.00;;;3.60;;
53207;SDS011;39093;52.788;6.940;2023-07-20T03:52:12;4.95;;;3.58;;
53207;SDS011;39093;52.788;6.940;2023-07-20T03:54:42;3.70;;;3.40;;
53207;SDS011;39093;52.788;6.940;2023-07-20T03:57:10;4.80;;;3.28;;
53207;SDS011;39093;52.788;6.940;2023-07-20T03:59:39;7.88;;;3.80;;
53207;SDS011;39093;52.788;6.940;2023-07-20T04:02:12;4.30;;;3.67;;
53207;SDS011;39093;52.788;6.940;2023-07-20T04:04:39;8.45;;;3.58;;
53207;SDS011;39093;52.788;6.940;2023-07-20T04:07:09;3.88;;;3.45;;
53207;SDS011;39093;52.788;6.940;2023-07-20T04:09:36;4.47;;;3.25;;
53207;SDS011;39093;52.788;6.940;2023-07-20T04:12:03;4.47;;;3.33;;
53207;SDS011;39093;52.788;6.940;2023-07-20T04:14:30;3.75;;;3.33;;
53207;SDS011;39093;52.788;6.940;2023-07-20T04:16:57;3.70;;;3.33;;
53207;SDS011;39093;52.788;6.940;2023-07-20T04:19:24;4.35;;;3.25;;
53207;SDS011;39093;52.788;6.940;2023-07-20T04:21:51;4.25;;;3.15;;
53207;SDS011;39093;52.788;6.940;2023-07-20T04:24:17;4.32;;;3.38;;
53207;SDS011;39093;52.788;6.940;2023-07-20T04:26:44;5.60;;;3.58;;
53207;SDS011;39093;52.788;6.940;2023-07-20T04:29:13;4.93;;;3.90;;
53207;SDS011;39093;52.788;6.940;2023-07-20T04:31:42;4.32;;;3.30;;
53207;SDS011;39093;52.788;6.940;2023-07-20T04:34:12;7.32;;;4.13;;
53207;SDS011;39093;52.788;6.940;2023-07-20T04:36:39;4.63;;;3.45;;
53207;SDS011;39093;52.788;6.940;2023-07-20T04:39:09;4.85;;;3.28;;
53207;SDS011;39093;52.788;6.940;2023-07-20T04:41:51;4.05;;;3.65;;
53207;SDS011;39093;52.788;6.940;2023-07-20T04:44:18;4.25;;;3.10;;
53207;SDS011;39093;52.788;6.940;2023-07-20T04:46:45;3.38;;;3.00;;
53207;SDS011;39093;52.788;6.940;2023-07-20T04:49:13;4.43;;;3.05;;
53207;SDS011;39093;52.788;6.940;2023-07-20T04:51:39;3.30;;;2.78;;
53207;SDS011;39093;52.788;6.940;2023-07-20T04:54:09;4.30;;;3.03;;
53207;SDS011;39093;52.788;6.940;2023-07-20T04:56:36;6.22;;;2.92;;
53207;SDS011;39093;52.788;6.940;2023-07-20T04:59:03;3.15;;;2.83;;
53207;SDS011;39093;52.788;6.940;2023-07-20T05:01:30;6.60;;;2.75;;
53207;SDS011;39093;52.788;6.940;2023-07-20T05:03:57;3.83;;;2.97;;
53207;SDS011;39093;52.788;6.940;2023-07-20T05:06:24;3.13;;;2.50;;
53207;SDS011;39093;52.788;6.940;2023-07-20T05:08:52;6.28;;;2.72;;
53207;SDS011;39093;52.788;6.940;2023-07-20T05:11:18;2.38;;;2.17;;
53207;SDS011;39093;52.788;6.940;2023-07-20T05:13:46;2.20;;;1.98;;
53207;SDS011;39093;52.788;6.940;2023-07-20T05:16:13;2.58;;;2.10;;
53207;SDS011;39093;52.788;6.940;2023-07-20T05:18:40;3.33;;;1.67;;
53207;SDS011;39093;52.788;6.940;2023-07-20T05:21:07;1.65;;;1.55;;
53207;SDS011;39093;52.788;6.940;2023-07-20T05:23:34;2.40;;;1.88;;
53207;SDS011;39093;52.788;6.940;2023-07-20T05:26:01;2.88;;;1.80;;
53207;SDS011;39093;52.788;6.940;2023-07-20T05:28:28;5.50;;;1.77;;
53207;SDS011;39093;52.788;6.940;2023-07-20T05:30:55;8.40;;;1.65;;
53207;SDS011;39093;52.788;6.940;2023-07-20T05:33:23;4.20;;;1.40;;
53207;SDS011;39093;52.788;6.940;2023-07-20T05:35:50;3.05;;;1.55;;
53207;SDS011;39093;52.788;6.940;2023-07-20T05:38:17;3.45;;;1.42;;
53207;SDS011;39093;52.788;6.940;2023-07-20T05:40:44;1.38;;;1.20;;
53207;SDS011;39093;52.788;6.940;2023-07-20T05:43:11;13.82;;;3.35;;
53207;SDS011;39093;52.788;6.940;2023-07-20T05:45:41;3.63;;;1.35;;
53207;SDS011;39093;52.788;6.940;2023-07-20T05:48:09;2.85;;;1.05;;
53207;SDS011;39093;52.788;6.940;2023-07-20T05:50:38;3.33;;;0.95;;
53207;SDS011;39093;52.788;6.940;2023-07-20T05:53:11;4.57;;;1.23;;
53207;SDS011;39093;52.788;6.940;2023-07-20T05:55:38;5.35;;;1.45;;
53207;SDS011;39093;52.788;6.940;2023-07-20T05:58:06;3.33;;;1.40;;
53207;SDS011;39093;52.788;6.940;2023-07-20T06:00:33;2.65;;;1.00;;
53207;SDS011;39093;52.788;6.940;2023-07-20T06:03:00;3.17;;;1.15;;
53207;SDS011;39093;52.788;6.940;2023-07-20T06:05:29;1.10;;;0.68;;
53207;SDS011;39093;52.788;6.940;2023-07-20T06:07:56;6.38;;;1.40;;
53207;SDS011;39093;52.788;6.940;2023-07-20T06:10:24;5.22;;;0.90;;
53207;SDS011;39093;52.788;6.940;2023-07-20T06:12:51;2.10;;;0.60;;
53207;SDS011;39093;52.788;6.940;2023-07-20T06:15:28;2.22;;;0.73;;
53207;SDS011;39093;52.788;6.940;2023-07-20T06:17:57;6.43;;;1.73;;
53207;SDS011;39093;52.788;6.940;2023-07-20T06:20:25;13.90;;;3.53;;
53207;SDS011;39093;52.788;6.940;2023-07-20T06:22:55;4.45;;;0.98;;
53207;SDS011;39093;52.788;6.940;2023-07-20T06:25:22;7.00;;;0.75;;
53207;SDS011;39093;52.788;6.940;2023-07-20T06:27:49;1.23;;;0.73;;
53207;SDS011;39093;52.788;6.940;2023-07-20T06:30:20;0.88;;;0.70;;
53207;SDS011;39093;52.788;6.940;2023-07-20T06:32:47;2.15;;;0.47;;
53207;SDS011;39093;52.788;6.940;2023-07-20T06:35:15;5.18;;;0.82;;
53207;SDS011;39093;52.788;6.940;2023-07-20T06:37:43;5.25;;;0.65;;
53207;SDS011;39093;52.788;6.940;2023-07-20T06:40:10;2.47;;;0.50;;
53207;SDS011;39093;52.788;6.940;2023-07-20T06:42:40;1.10;;;0.50;;
53207;SDS011;39093;52.788;6.940;2023-07-20T06:45:10;2.13;;;0.85;;
53207;SDS011;39093;52.788;6.940;2023-07-20T06:47:38;0.65;;;0.45;;
53207;SDS011;39093;52.788;6.940;2023-07-20T06:50:06;1.20;;;0.35;;
53207;SDS011;39093;52.788;6.940;2023-07-20T06:52:34;1.23;;;0.38;;
53207;SDS011;39093;52.788;6.940;2023-07-20T06:55:01;3.83;;;0.98;;
53207;SDS011;39093;52.788;6.940;2023-07-20T06:57:31;1.52;;;0.40;;
53207;SDS011;39093;52.788;6.940;2023-07-20T06:59:58;1.85;;;0.40;;
53207;SDS011;39093;52.788;6.940;2023-07-20T07:02:25;5.45;;;1.25;;
53207;SDS011;39093;52.788;6.940;2023-07-20T07:04:52;2.85;;;0.57;;
53207;SDS011;39093;52.788;6.940;2023-07-20T07:07:22;1.05;;;0.40;;
53207;SDS011;39093;52.788;6.940;2023-07-20T07:09:53;1.65;;;0.60;;
53207;SDS011;39093;52.788;6.940;2023-07-20T07:12:20;4.20;;;0.50;;
53207;SDS011;39093;52.788;6.940;2023-07-20T07:14:47;2.83;;;0.77;;
53207;SDS011;39093;52.788;6.940;2023-07-20T07:17:14;1.90;;;0.52;;
53207;SDS011;39093;52.788;6.940;2023-07-20T07:19:45;3.60;;;0.88;;
53207;SDS011;39093;52.788;6.940;2023-07-20T07:22:14;2.42;;;0.70;;
53207;SDS011;39093;52.788;6.940;2023-07-20T07:24:41;3.88;;;0.65;;
53207;SDS011;39093;52.788;6.940;2023-07-20T07:27:08;3.67;;;0.60;;
53207;SDS011;39093;52.788;6.940;2023-07-20T07:29:36;2.53;;;0.60;;
53207;SDS011;39093;52.788;6.940;2023-07-20T07:32:03;4.00;;;0.60;;
53207;SDS011;39093;52.788;6.940;2023-07-20T07:34:31;0.68;;;0.35;;
53207;SDS011;39093;52.788;6.940;2023-07-20T07:37:01;1.45;;;0.60;;
53207;SDS011;39093;52.788;6.940;2023-07-20T07:39:28;1.55;;;0.50;;
53207;SDS011;39093;52.788;6.940;2023-07-20T07:42:01;1.65;;;0.40;;
53207;SDS011;39093;52.788;6.940;2023-07-20T07:44:27;8.38;;;0.75;;
53207;SDS011;39093;52.788;6.940;2023-07-20T07:46:54;3.22;;;0.50;;
53207;SDS011;39093;52.788;6.940;2023-07-20T07:49:22;2.33;;;0.52;;
53207;SDS011;39093;52.788;6.940;2023-07-20T07:51:49;1.42;;;0.40;;
53207;SDS011;39093;52.788;6.940;2023-07-20T07:54:15;2.17;;;0.65;;
53207;SDS011;39093;52.788;6.940;2023-07-20T07:56:42;5.97;;;1.02;;
53207;SDS011;39093;52.788;6.940;2023-07-20T07:59:10;3.03;;;0.82;;
53207;SDS011;39093;52.788;6.940;2023-07-20T08:01:38;1.73;;;0.60;;
53207;SDS011;39093;52.788;6.940;2023-07-20T08:04:05;3.53;;;0.60;;
53207;SDS011;39093;52.788;6.940;2023-07-20T08:06:32;2.95;;;0.45;;
53207;SDS011;39093;52.788;6.940;2023-07-20T08:08:59;2.10;;;0.70;;
53207;SDS011;39093;52.788;6.940;2023-07-20T08:11:27;1.88;;;0.50;;
53207;SDS011;39093;52.788;6.940;2023-07-20T08:13:53;3.88;;;1.00;;
53207;SDS011;39093;52.788;6.940;2023-07-20T08:16:23;0.93;;;0.50;;
53207;SDS011;39093;52.788;6.940;2023-07-20T08:18:51;2.08;;;0.60;;
53207;SDS011;39093;52.788;6.940;2023-07-20T08:21:21;1.67;;;0.50;;
53207;SDS011;39093;52.788;6.940;2023-07-20T08:23:48;1.75;;;0.60;;
53207;SDS011;39093;52.788;6.940;2023-07-20T08:26:15;0.77;;;0.38;;
53207;SDS011;39093;52.788;6.940;2023-07-20T08:28:44;4.03;;;0.85;;
53207;SDS011;39093;52.788;6.940;2023-07-20T08:31:11;0.98;;;0.50;;
53207;SDS011;39093;52.788;6.940;2023-07-20T08:33:42;1.88;;;0.70;;
53207;SDS011;39093;52.788;6.940;2023-07-20T08:36:09;1.50;;;0.50;;
53207;SDS011;39093;52.788;6.940;2023-07-20T08:38:37;1.23;;;0.50;;
53207;SDS011;39093;52.788;6.940;2023-07-20T08:41:04;1.83;;;0.90;;
53207;SDS011;39093;52.788;6.940;2023-07-20T08:43:31;5.88;;;0.70;;
53207;SDS011;39093;52.788;6.940;2023-07-20T08:46:00;1.83;;;0.47;;
53207;SDS011;39093;52.788;6.940;2023-07-20T08:48:28;7.82;;;0.60;;
53207;SDS011;39093;52.788;6.940;2023-07-20T08:50:57;1.48;;;0.40;;
53207;SDS011;39093;52.788;6.940;2023-07-20T08:53:27;3.50;;;1.50;;
53207;SDS011;39093;52.788;6.940;2023-07-20T08:55:56;5.25;;;0.55;;
53207;SDS011;39093;52.788;6.940;2023-07-20T08:58:23;1.45;;;1.17;;
53207;SDS011;39093;52.788;6.940;2023-07-20T09:00:52;1.05;;;0.30;;
53207;SDS011;39093;52.788;6.940;2023-07-20T09:03:21;1.13;;;0.50;;
53207;SDS011;39093;52.788;6.940;2023-07-20T09:05:49;4.18;;;0.80;;
53207;SDS011;39093;52.788;6.940;2023-07-20T09:08:16;2.10;;;0.40;;
53207;SDS011;39093;52.788;6.940;2023-07-20T09:10:43;1.20;;;0.40;;
53207;SDS011;39093;52.788;6.940;2023-07-20T09:13:13;4.32;;;0.60;;
53207;SDS011;39093;52.788;6.940;2023-07-20T09:15:45;1.52;;;0.35;;
53207;SDS011;39093;52.788;6.940;2023-07-20T09:18:22;0.70;;;0.40;;
53207;SDS011;39093;52.788;6.940;2023-07-20T09:20:51;4.13;;;0.70;;
53207;SDS011;39093;52.788;6.940;2023-07-20T09:23:18;1.73;;;0.50;;
53207;SDS011;39093;52.788;6.940;2023-07-20T09:25:46;0.93;;;0.50;;
53207;SDS011;39093;52.788;6.940;2023-07-20T09:28:17;4.60;;;0.65;;
53207;SDS011;39093;52.788;6.940;2023-07-20T09:30:44;0.82;;;0.40;;
53207;SDS011;39093;52.788;6.940;2023-07-20T09:33:21;1.63;;;0.47;;
53207;SDS011;39093;52.788;6.940;2023-07-20T09:35:51;3.80;;;1.05;;
53207;SDS011;39093;52.788;6.940;2023-07-20T09:38:21;2.28;;;0.57;;
53207;SDS011;39093;52.788;6.940;2023-07-20T09:40:50;3.13;;;0.65;;
53207;SDS011;39093;52.788;6.940;2023-07-20T09:43:20;1.10;;;0.40;;
53207;SDS011;39093;52.788;6.940;2023-07-20T09:45:51;1.17;;;0.50;;
53207;SDS011;39093;52.788;6.940;2023-07-20T09:48:25;1.10;;;0.70;;
53207;SDS011;39093;52.788;6.940;2023-07-20T09:50:58;3.88;;;0.82;;
53207;SDS011;39093;52.788;6.940;2023-07-20T09:53:26;3.08;;;0.70;;
53207;SDS011;39093;52.788;6.940;2023-07-20T09:55:53;4.97;;;0.55;;
53207;SDS011;39093;52.788;6.940;2023-07-20T09:58:21;2.13;;;0.40;;
53207;SDS011;39093;52.788;6.940;2023-07-20T10:00:48;2.00;;;0.55;;
53207;SDS011;39093;52.788;6.940;2023-07-20T10:03:20;2.65;;;0.57;;
53207;SDS011;39093;52.788;6.940;2023-07-20T10:05:54;1.58;;;0.50;;
53207;SDS011;39093;52.788;6.940;2023-07-20T10:08:26;1.85;;;0.40;;
53207;SDS011;39093;52.788;6.940;2023-07-20T10:10:59;1.17;;;0.38;;
53207;SDS011;39093;52.788;6.940;2023-07-20T10:13:29;2.63;;;0.55;;
53207;SDS011;39093;52.788;6.940;2023-07-20T10:16:03;1.55;;;0.40;;
53207;SDS011;39093;52.788;6.940;2023-07-20T10:21:29;2.38;;;0.77;;
53207;SDS011;39093;52.788;6.940;2023-07-20T10:23:59;1.85;;;0.65;;
53207;SDS011;39093;52.788;6.940;2023-07-20T10:26:27;2.65;;;0.80;;
53207;SDS011;39093;52.788;6.940;2023-07-20T10:28:55;1.23;;;0.77;;
53207;SDS011;39093;52.788;6.940;2023-07-20T10:31:22;2.22;;;0.57;;
53207;SDS011;39093;52.788;6.940;2023-07-20T10:33:50;3.33;;;0.60;;
53207;SDS011;39093;52.788;6.940;2023-07-20T10:36:24;3.10;;;0.50;;
53207;SDS011;39093;52.788;6.940;2023-07-20T10:38:57;6.55;;;0.75;;
53207;SDS011;39093;52.788;6.940;2023-07-20T10:41:29;1.52;;;0.63;;
53207;SDS011;39093;52.788;6.940;2023-07-20T10:44:09;3.35;;;0.75;;
53207;SDS011;39093;52.788;6.940;2023-07-20T10:49:05;3.78;;;0.77;;
53207;SDS011;39093;52.788;6.940;2023-07-20T10:51:43;3.13;;;0.68;;
53207;SDS011;39093;52.788;6.940;2023-07-20T10:56:46;2.88;;;0.68;;
53207;SDS011;39093;52.788;6.940;2023-07-20T10:59:36;1.27;;;0.55;;
53207;SDS011;39093;52.788;6.940;2023-07-20T11:02:10;1.40;;;0.57;;
53207;SDS011;39093;52.788;6.940;2023-07-20T11:07:08;0.52;;;0.30;;
53207;SDS011;39093;52.788;6.940;2023-07-20T11:09:36;1.80;;;0.60;;
53207;SDS011;39093;52.788;6.940;2023-07-20T11:12:14;1.80;;;0.60;;
53207;SDS011;39093;52.788;6.940;2023-07-20T11:15:03;3.95;;;0.43;;
53207;SDS011;39093;52.788;6.940;2023-07-20T11:17:30;1.23;;;0.55;;
53207;SDS011;39093;52.788;6.940;2023-07-20T11:19:59;2.97;;;0.80;;
53207;SDS011;39093;52.788;6.940;2023-07-20T11:22:32;0.70;;;0.50;;
53207;SDS011;39093;52.788;6.940;2023-07-20T11:25:00;1.60;;;0.60;;
53207;SDS011;39093;52.788;6.940;2023-07-20T11:27:27;0.98;;;0.43;;
53207;SDS011;39093;52.788;6.940;2023-07-20T11:29:55;2.67;;;0.73;;
53207;SDS011;39093;52.788;6.940;2023-07-20T11:32:23;7.20;;;0.88;;
53207;SDS011;39093;52.788;6.940;2023-07-20T11:34:51;3.65;;;0.52;;
53207;SDS011;39093;52.788;6.940;2023-07-20T11:37:18;4.03;;;1.08;;
53207;SDS011;39093;52.788;6.940;2023-07-20T11:39:45;8.48;;;0.88;;
53207;SDS011;39093;52.788;6.940;2023-07-20T11:42:13;3.45;;;0.68;;
53207;SDS011;39093;52.788;6.940;2023-07-20T11:45:04;3.13;;;0.60;;
53207;SDS011;39093;52.788;6.940;2023-07-20T11:47:32;2.50;;;0.85;;
53207;SDS011;39093;52.788;6.940;2023-07-20T11:50:03;4.38;;;0.55;;
53207;SDS011;39093;52.788;6.940;2023-07-20T11:52:31;1.45;;;0.60;;
53207;SDS011;39093;52.788;6.940;2023-07-20T11:55:01;1.33;;;0.43;;
53207;SDS011;39093;52.788;6.940;2023-07-20T11:57:29;1.65;;;0.60;;
53207;SDS011;39093;52.788;6.940;2023-07-20T12:00:02;0.55;;;0.50;;
53207;SDS011;39093;52.788;6.940;2023-07-20T12:02:38;1.90;;;0.70;;
53207;SDS011;39093;52.788;6.940;2023-07-20T12:05:13;0.38;;;0.38;;
53207;SDS011;39093;52.788;6.940;2023-07-20T12:07:41;1.58;;;0.65;;
53207;SDS011;39093;52.788;6.940;2023-07-20T12:10:10;2.47;;;0.70;;
53207;SDS011;39093;52.788;6.940;2023-07-20T12:12:38;1.48;;;0.60;;
53207;SDS011;39093;52.788;6.940;2023-07-20T12:17:49;1.45;;;0.60;;
53207;SDS011;39093;52.788;6.940;2023-07-20T12:23:12;0.65;;;0.50;;
53207;SDS011;39093;52.788;6.940;2023-07-20T12:28:08;1.85;;;0.80;;
53207;SDS011;39093;52.788;6.940;2023-07-20T12:30:37;3.63;;;0.90;;
53207;SDS011;39093;52.788;6.940;2023-07-20T12:33:05;2.65;;;0.77;;
53207;SDS011;39093;52.788;6.940;2023-07-20T12:35:33;1.85;;;0.50;;
53207;SDS011;39093;52.788;6.940;2023-07-20T12:38:01;1.38;;;0.50;;
53207;SDS011;39093;52.788;6.940;2023-07-20T12:40:28;2.75;;;1.05;;
53207;SDS011;39093;52.788;6.940;2023-07-20T12:42:55;6.25;;;1.13;;
53207;SDS011;39093;52.788;6.940;2023-07-20T12:45:23;1.85;;;0.80;;
53207;SDS011;39093;52.788;6.940;2023-07-20T12:47:50;2.38;;;0.93;;
53207;SDS011;39093;52.788;6.940;2023-07-20T12:50:17;1.15;;;0.77;;
53207;SDS011;39093;52.788;6.940;2023-07-20T12:52:44;1.63;;;0.73;;
53207;SDS011;39093;52.788;6.940;2023-07-20T12:55:11;1.75;;;0.82;;
53207;SDS011;39093;52.788;6.940;2023-07-20T12:57:38;1.40;;;0.50;;
53207;SDS011;39093;52.788;6.940;2023-07-20T13:00:05;1.38;;;0.60;;
53207;SDS011;39093;52.788;6.940;2023-07-20T13:02:36;1.92;;;0.70;;
53207;SDS011;39093;52.788;6.940;2023-07-20T13:05:04;3.85;;;0.90;;
53207;SDS011;39093;52.788;6.940;2023-07-20T13:07:32;3.13;;;1.10;;
53207;SDS011;39093;52.788;6.940;2023-07-20T13:10:03;1.85;;;0.60;;
53207;SDS011;39093;52.788;6.940;2023-07-20T13:12:32;1.83;;;0.60;;
53207;SDS011;39093;52.788;6.940;2023-07-20T13:15:00;1.38;;;0.60;;
53207;SDS011;39093;52.788;6.940;2023-07-20T13:17:32;3.45;;;1.00;;
53207;SDS011;39093;52.788;6.940;2023-07-20T13:20:03;2.42;;;1.08;;
53207;SDS011;39093;52.788;6.940;2023-07-20T13:22:32;3.63;;;0.73;;
53207;SDS011;39093;52.788;6.940;2023-07-20T13:25:00;5.03;;;1.00;;
53207;SDS011;39093;52.788;6.940;2023-07-20T13:27:27;2.65;;;0.80;;
53207;SDS011;39093;52.788;6.940;2023-07-20T13:29:54;4.10;;;0.80;;
53207;SDS011;39093;52.788;6.940;2023-07-20T13:32:26;1.05;;;0.70;;
53207;SDS011;39093;52.788;6.940;2023-07-20T13:34:59;0.95;;;0.60;;
53207;SDS011;39093;52.788;6.940;2023-07-20T13:37:28;2.28;;;0.90;;
53207;SDS011;39093;52.788;6.940;2023-07-20T13:39:57;1.65;;;0.68;;
53207;SDS011;39093;52.788;6.940;2023-07-20T13:42:27;1.98;;;0.60;;
53207;SDS011;39093;52.788;6.940;2023-07-20T13:44:54;5.07;;;0.50;;
53207;SDS011;39093;52.788;6.940;2023-07-20T13:47:22;1.83;;;0.60;;
53207;SDS011;39093;52.788;6.940;2023-07-20T13:49:49;1.88;;;0.60;;
53207;SDS011;39093;52.788;6.940;2023-07-20T13:52:28;1.25;;;0.38;;
53207;SDS011;39093;52.788;6.940;2023-07-20T13:54:58;4.40;;;1.13;;
53207;SDS011;39093;52.788;6.940;2023-07-20T13:57:25;1.80;;;0.80;;
53207;SDS011;39093;52.788;6.940;2023-07-20T13:59:53;1.83;;;0.65;;
53207;SDS011;39093;52.788;6.940;2023-07-20T14:02:26;1.35;;;0.70;;
53207;SDS011;39093;52.788;6.940;2023-07-20T14:04:56;1.88;;;0.85;;
53207;SDS011;39093;52.788;6.940;2023-07-20T14:07:26;1.45;;;0.50;;
53207;SDS011;39093;52.788;6.940;2023-07-20T14:09:53;0.70;;;0.50;;
53207;SDS011;39093;52.788;6.940;2023-07-20T14:12:23;4.88;;;0.73;;
53207;SDS011;39093;52.788;6.940;2023-07-20T14:14:50;4.18;;;0.90;;
53207;SDS011;39093;52.788;6.940;2023-07-20T14:17:17;0.88;;;0.50;;
53207;SDS011;39093;52.788;6.940;2023-07-20T14:19:44;2.65;;;0.75;;
53207;SDS011;39093;52.788;6.940;2023-07-20T14:22:12;2.35;;;0.55;;
53207;SDS011;39093;52.788;6.940;2023-07-20T14:24:38;5.40;;;1.20;;
53207;SDS011;39093;52.788;6.940;2023-07-20T14:27:06;2.60;;;0.90;;
53207;SDS011;39093;52.788;6.940;2023-07-20T14:29:33;2.83;;;1.30;;
53207;SDS011;39093;52.788;6.940;2023-07-20T14:32:02;2.85;;;1.08;;
53207;SDS011;39093;52.788;6.940;2023-07-20T14:34:32;2.33;;;1.05;;
53207;SDS011;39093;52.788;6.940;2023-07-20T14:37:04;2.47;;;1.08;;
53207;SDS011;39093;52.788;6.940;2023-07-20T14:39:32;4.13;;;1.60;;
53207;SDS011;39093;52.788;6.940;2023-07-20T14:42:02;2.60;;;1.20;;
53207;SDS011;39093;52.788;6.940;2023-07-20T14:44:30;3.83;;;1.77;;
53207;SDS011;39093;52.788;6.940;2023-07-20T14:46:59;2.20;;;1.23;;
53207;SDS011;39093;52.788;6.940;2023-07-20T14:49:39;3.13;;;1.35;;
53207;SDS011;39093;52.788;6.940;2023-07-20T14:52:06;1.98;;;1.10;;
53207;SDS011;39093;52.788;6.940;2023-07-20T14:54:36;3.58;;;1.45;;
53207;SDS011;39093;52.788;6.940;2023-07-20T14:57:03;1.92;;;1.20;;
53207;SDS011;39093;52.788;6.940;2023-07-20T14:59:31;2.70;;;1.60;;
53207;SDS011;39093;52.788;6.940;2023-07-20T15:01:58;2.75;;;1.25;;
53207;SDS011;39093;52.788;6.940;2023-07-20T15:04:25;2.55;;;1.10;;
53207;SDS011;39093;52.788;6.940;2023-07-20T15:06:53;5.03;;;1.52;;
53207;SDS011;39093;52.788;6.940;2023-07-20T15:09:24;5.50;;;1.30;;
53207;SDS011;39093;52.788;6.940;2023-07-20T15:11:50;4.55;;;1.40;;
53207;SDS011;39093;52.788;6.940;2023-07-20T15:14:17;2.75;;;1.20;;
53207;SDS011;39093;52.788;6.940;2023-07-20T15:16:44;1.55;;;1.08;;
53207;SDS011;39093;52.788;6.940;2023-07-20T15:19:15;3.40;;;1.30;;
53207;SDS011;39093;52.788;6.940;2023-07-20T15:21:43;4.10;;;1.55;;
53207;SDS011;39093;52.788;6.940;2023-07-20T15:24:10;2.88;;;1.13;;